| time (UTC) | temp C | wind direction | speed KPH | gust KPH | rain 1hr cm | rain 24hr cm | rain mn cm | humidity % | barometer mb |
| 20260507024032 | 13 | 288 | 1.6 | 1.6 | 0.00 | 0.30 | 0.30 | 99 | 1010.1 |
| 20260507023528 | 13 | 312 | 0.0 | 1.6 | 0.00 | 0.30 | 0.30 | 99 | 1010.1 |
| 20260507023026 | 13 | 290 | 0.0 | 1.6 | 0.00 | 0.30 | 0.30 | 99 | 1010.2 |
| 20260507022523 | 13 | 311 | 0.0 | 1.6 | 0.00 | 0.30 | 0.30 | 99 | 1010.3 |
| 20260507022018 | 13 | 280 | 1.6 | 3.2 | 0.00 | 0.30 | 0.30 | 99 | 1010.1 |
| 20260507021514 | 13 | 241 | 1.6 | 3.2 | 0.00 | 0.30 | 0.30 | 99 | 1010.1 |
| 20260507021011 | 13 | 202 | 4.8 | 4.8 | 0.00 | 0.30 | 0.30 | 99 | 1010.2 |
| 20260507020508 | 13 | 327 | 0.0 | 3.2 | 0.00 | 0.30 | 0.30 | 99 | 1010.5 |
| 20260507020005 | 12 | 263 | 3.2 | 3.2 | 0.00 | 0.30 | 0.30 | 99 | 1010.3 |
| 20260507015503 | 13 | 283 | 1.6 | 8.0 | 0.00 | 0.30 | 0.30 | 99 | 1010.5 |
| 20260507014955 | 13 | 296 | 3.2 | 8.0 | 0.00 | 0.30 | 0.30 | 99 | 1010.4 |
| 20260507014451 | 13 | 307 | 1.6 | 4.8 | 0.00 | 0.30 | 0.30 | 99 | 1010.4 |
| 20260507013947 | 13 | 263 | 1.6 | 3.2 | 0.00 | 0.30 | 0.30 | 99 | 1010.4 |
| 20260507013444 | 13 | 313 | 1.6 | 4.8 | 0.00 | 0.30 | 0.30 | 99 | 1010.4 |
| 20260507012941 | 13 | 332 | 1.6 | 4.8 | 0.00 | 0.30 | 0.30 | 99 | 1010.6 |
| 20260507012437 | 13 | 330 | 0.0 | 3.2 | 0.00 | 0.30 | 0.30 | 99 | 1010.4 |
| 20260507011928 | 13 | 275 | 1.6 | 4.8 | 0.00 | 0.30 | 0.30 | 99 | 1010.2 |
| 20260507011425 | 13 | 340 | 4.8 | 8.0 | 0.00 | 0.30 | 0.30 | 99 | 1010.0 |
| 20260507010920 | 13 | 310 | 1.6 | 4.8 | 0.00 | 0.30 | 0.30 | 99 | 1010.0 |
| 20260507010415 | 13 | 299 | 1.6 | 3.2 | 0.00 | 0.30 | 0.30 | 99 | 1010.0 |
| 20260507005913 | 13 | 49 | 0.0 | 3.2 | 0.00 | 0.30 | 0.30 | 99 | 1010.3 |
| 20260507005409 | 13 | 327 | 3.2 | 4.8 | 0.00 | 0.30 | 0.30 | 99 | 1010.0 |
| 20260507004906 | 13 | 264 | 3.2 | 4.8 | 0.00 | 0.30 | 0.30 | 99 | 1010.2 |
| 20260507004403 | 13 | 162 | 3.2 | 3.2 | 0.00 | 0.30 | 0.30 | 99 | 1010.2 |
| 20260507003900 | 13 | 304 | 4.8 | 8.0 | 0.00 | 0.30 | 0.30 | 99 | 1010.0 |
| 20260507003355 | 13 | 127 | 1.6 | 1.6 | 0.00 | 0.30 | 0.30 | 99 | 1010.0 |
| 20260507002851 | 13 | 222 | 3.2 | 8.0 | 0.00 | 0.30 | 0.30 | 99 | 1010.2 |
| 20260507002347 | 13 | 181 | 3.2 | 8.0 | 0.00 | 0.30 | 0.30 | 99 | 1010.2 |
| 20260507001844 | 13 | 332 | 1.6 | 3.2 | 0.00 | 0.30 | 0.30 | 99 | 1010.3 |
| 20260507001341 | 13 | 328 | 1.6 | 3.2 | 0.00 | 0.30 | 0.30 | 99 | 1010.3 |
| 20260507000838 | 13 | 312 | 1.6 | 4.8 | 0.00 | 0.30 | 0.30 | 99 | 1010.2 |
| 20260507000335 | 13 | 309 | 4.8 | 11.3 | 0.00 | 0.30 | 0.30 | 99 | 1010.1 |
| 20260506235830 | 13 | 215 | 3.2 | 4.8 | 0.00 | 0.30 | 0.30 | 99 | 1010.2 |
| 20260506235327 | 13 | 321 | 4.8 | 8.0 | 0.00 | 0.30 | 0.30 | 99 | 1010.1 |
| 20260506234823 | 13 | 319 | 1.6 | 4.8 | 0.00 | 0.30 | 0.30 | 99 | 1010.0 |
| 20260506234321 | 13 | 290 | 1.6 | 4.8 | 0.00 | 0.30 | 0.30 | 99 | 1009.9 |
| 20260506233818 | 13 | 218 | 1.6 | 4.8 | 0.00 | 0.30 | 0.30 | 99 | 1010.0 |
| 20260506233314 | 13 | 310 | 3.2 | 4.8 | 0.00 | 0.30 | 0.30 | 99 | 1010.0 |
| 20260506232811 | 13 | 187 | 1.6 | 4.8 | 0.00 | 0.30 | 0.30 | 99 | 1010.0 |
| 20260506232306 | 13 | 238 | 6.4 | 8.0 | 0.00 | 0.30 | 0.30 | 99 | 1009.9 |
| 20260506231803 | 13 | 239 | 3.2 | 4.8 | 0.00 | 0.30 | 0.30 | 99 | 1009.9 |
| 20260506231301 | 13 | 314 | 3.2 | 3.2 | 0.00 | 0.30 | 0.30 | 99 | 1010.0 |
| 20260506230758 | 13 | 194 | 3.2 | 12.9 | 0.00 | 0.30 | 0.30 | 99 | 1009.9 |
| 20260506230255 | 13 | 236 | 1.6 | 3.2 | 0.00 | 0.30 | 0.30 | 99 | 1009.9 |
| 20260506225751 | 13 | 231 | 3.2 | 4.8 | 0.00 | 0.30 | 0.30 | 99 | 1009.9 |
| 20260506225248 | 13 | 252 | 1.6 | 3.2 | 0.00 | 0.30 | 0.30 | 99 | 1009.6 |
| 20260506224745 | 12 | 212 | 4.8 | 9.7 | 0.00 | 0.30 | 0.30 | 99 | 1009.6 |
| 20260506224242 | 12 | 208 | 3.2 | 11.3 | 0.00 | 0.30 | 0.30 | 99 | 1009.7 |
| 20260506223732 | 12 | 345 | 1.6 | 4.8 | 0.00 | 0.30 | 0.30 | 99 | 1009.7 |
| 20260506223228 | 13 | 194 | 3.2 | 3.2 | 0.00 | 0.30 | 0.30 | 99 | 1009.7 |
| 20260506222726 | 13 | 312 | 3.2 | 3.2 | 0.00 | 0.30 | 0.30 | 99 | 1009.7 |
| 20260506222221 | 13 | 320 | 1.6 | 1.6 | 0.00 | 0.30 | 0.30 | 99 | 1009.6 |
| 20260506221719 | 12 | 240 | 3.2 | 4.8 | 0.00 | 0.30 | 0.30 | 99 | 1009.7 |
| 20260506221217 | 12 | 310 | 1.6 | 1.6 | 0.00 | 0.30 | 0.30 | 99 | 1009.6 |
| 20260506220714 | 12 | 214 | 3.2 | 8.0 | 0.00 | 0.30 | 0.30 | 99 | 1009.8 |
| 20260506220208 | 13 | 116 | 3.2 | 11.3 | 0.00 | 0.30 | 0.30 | 98 | 1009.8 |
| 20260506215705 | 13 | 212 | 4.8 | 9.7 | 0.00 | 0.30 | 0.30 | 98 | 1009.8 |
| 20260506215201 | 13 | 237 | 3.2 | 3.2 | 0.00 | 0.30 | 0.30 | 98 | 1009.9 |
| 20260506214658 | 13 | 254 | 3.2 | 4.8 | 0.00 | 0.30 | 0.30 | 98 | 1009.7 |
| 20260506214155 | 13 | 284 | 3.2 | 9.7 | 0.00 | 0.30 | 0.30 | 98 | 1009.8 |
| 20260506213654 | 13 | 218 | 3.2 | 12.9 | 0.00 | 0.30 | 0.30 | 98 | 1009.7 |
| 20260506213150 | 13 | 240 | 3.2 | 3.2 | 0.00 | 0.30 | 0.30 | 98 | 1009.6 |
| 20260506212647 | 13 | 242 | 4.8 | 4.8 | 0.13 | 0.30 | 0.30 | 98 | 1009.7 |
| 20260506212142 | 13 | 305 | 4.8 | 11.3 | 0.13 | 0.30 | 0.30 | 98 | 1009.9 |
| 20260506211638 | 13 | 334 | 1.6 | 8.0 | 0.00 | 0.28 | 0.28 | 98 | 1009.8 |
| 20260506211135 | 13 | 196 | 3.2 | 8.0 | 0.18 | 0.28 | 0.28 | 98 | 1009.9 |
| 20260506210632 | 13 | 300 | 1.6 | 4.8 | 0.18 | 0.28 | 0.28 | 98 | 1010.0 |
| 20260506210129 | 13 | 240 | 3.2 | 4.8 | 0.13 | 0.25 | 0.25 | 98 | 1009.9 |
| 20260506205626 | 13 | 222 | 1.6 | 8.0 | 0.13 | 0.25 | 0.25 | 98 | 1010.1 |
| 20260506205120 | 13 | 290 | 3.2 | 4.8 | 0.18 | 0.23 | 0.23 | 98 | 1010.1 |
| 20260506204619 | 13 | 321 | 0.0 | 4.8 | 0.00 | 0.20 | 0.20 | 98 | 1010.0 |
| 20260506204115 | 13 | 232 | 3.2 | 4.8 | 0.00 | 0.20 | 0.20 | 97 | 1010.0 |
| 20260506203614 | 13 | 346 | 1.6 | 3.2 | 0.18 | 0.20 | 0.20 | 97 | 1010.2 |
| 20260506203110 | 13 | 228 | 4.8 | 4.8 | 0.00 | 0.18 | 0.18 | 97 | 1010.1 |
| 20260506202608 | 13 | 309 | 4.8 | 9.7 | 0.00 | 0.18 | 0.18 | 97 | 1010.3 |
| 20260506202104 | 13 | 354 | 6.4 | 8.0 | 0.00 | 0.18 | 0.18 | 97 | 1010.3 |
| 20260506201601 | 13 | 275 | 6.4 | 8.0 | 0.00 | 0.18 | 0.18 | 97 | 1010.3 |
| 20260506201058 | 13 | 227 | 4.8 | 8.0 | 0.00 | 0.18 | 0.18 | 97 | 1010.3 |
| 20260506200554 | 13 | 195 | 1.6 | 4.8 | 0.00 | 0.18 | 0.18 | 97 | 1010.3 |
| 20260506200051 | 13 | 314 | 1.6 | 8.0 | 0.00 | 0.18 | 0.18 | 97 | 1010.4 |
| 20260506195547 | 13 | 329 | 4.8 | 8.0 | 0.00 | 0.18 | 0.18 | 97 | 1010.4 |
| 20260506195044 | 13 | 311 | 4.8 | 8.0 | 0.00 | 0.18 | 0.18 | 97 | 1010.7 |
| 20260506194543 | 13 | 235 | 1.6 | 4.8 | 0.00 | 0.18 | 0.18 | 97 | 1010.4 |
| 20260506194038 | 13 | 313 | 3.2 | 8.0 | 0.00 | 0.18 | 0.18 | 97 | 1010.7 |
| 20260506193536 | 13 | 315 | 4.8 | 8.0 | 0.00 | 0.18 | 0.18 | 97 | 1010.9 |
| 20260506193032 | 13 | 295 | 1.6 | 9.7 | 0.00 | 0.18 | 0.18 | 97 | 1010.9 |
| 20260506192529 | 13 | 325 | 1.6 | 9.7 | 0.00 | 0.18 | 0.18 | 97 | 1010.8 |
| 20260506192025 | 13 | 252 | 3.2 | 4.8 | 0.00 | 0.18 | 0.18 | 97 | 1010.9 |
| 20260506191522 | 13 | 230 | 4.8 | 8.0 | 0.00 | 0.18 | 0.18 | 97 | 1011.0 |
| 20260506191018 | 13 | 250 | 6.4 | 8.0 | 0.13 | 0.18 | 0.18 | 97 | 1010.9 |
| 20260506190515 | 13 | 230 | 6.4 | 9.7 | 0.13 | 0.18 | 0.18 | 96 | 1011.1 |
| 20260506190013 | 13 | 239 | 3.2 | 4.8 | 0.00 | 0.15 | 0.15 | 96 | 1010.9 |
| 20260506185510 | 13 | 282 | 6.4 | 9.7 | 0.00 | 0.15 | 0.15 | 96 | 1010.9 |
| 20260506185006 | 13 | 295 | 1.6 | 3.2 | 0.18 | 0.15 | 0.15 | 96 | 1011.1 |
| 20260506184504 | 13 | 119 | 3.2 | 4.8 | 0.13 | 0.13 | 0.13 | 96 | 1011.1 |
| 20260506184001 | 13 | 253 | 1.6 | 4.8 | 0.30 | 0.13 | 0.13 | 95 | 1011.1 |
| 20260506183456 | 13 | 253 | 3.2 | 8.0 | 0.00 | 0.08 | 0.08 | 95 | 1011.0 |
| 20260506182953 | 13 | 190 | 1.6 | 8.0 | 0.13 | 0.08 | 0.08 | 95 | 1010.9 |
| 20260506182450 | 13 | 186 | 1.6 | 8.0 | 0.13 | 0.08 | 0.08 | 94 | 1011.0 |
| 20260506181947 | 13 | 151 | 8.0 | 11.3 | 0.00 | 0.05 | 0.05 | 94 | 1011.2 |
| 20260506181445 | 13 | 293 | 3.2 | 8.0 | 0.18 | 0.05 | 0.05 | 94 | 1011.4 |
| 20260506180941 | 13 | 205 | 4.8 | 11.3 | 0.18 | 0.05 | 0.05 | 93 | 1011.4 |
| 20260506180438 | 13 | 186 | 4.8 | 8.0 | 0.00 | 0.03 | 0.03 | 93 | 1011.7 |
| 20260506175929 | 14 | 320 | 1.6 | 3.2 | 0.13 | 0.03 | 0.03 | 92 | 1011.7 |
| 20260506175426 | 14 | 154 | 4.8 | 8.0 | 0.13 | 0.03 | 0.03 | 91 | 1012.0 |
| 20260506174923 | 14 | 208 | 3.2 | 4.8 | 0.00 | 0.00 | 0.00 | 91 | 1012.1 |
| 20260506174421 | 15 | 288 | 3.2 | 3.2 | 0.00 | 0.00 | 0.00 | 89 | 1012.3 |
| 20260506173917 | 15 | 176 | 3.2 | 4.8 | 0.00 | 0.00 | 0.00 | 88 | 1012.1 |
| 20260506173414 | 15 | 197 | 6.4 | 9.7 | 0.00 | 0.00 | 0.00 | 88 | 1012.0 |
| 20260506172911 | 15 | 284 | 3.2 | 4.8 | 0.00 | 0.00 | 0.00 | 87 | 1012.2 |
| 20260506172408 | 15 | 256 | 1.6 | 4.8 | 0.00 | 0.00 | 0.00 | 86 | 1012.3 |
| 20260506171905 | 15 | 284 | 1.6 | 9.7 | 0.00 | 0.00 | 0.00 | 84 | 1012.5 |
| 20260506171402 | 15 | 296 | 3.2 | 8.0 | 0.00 | 0.00 | 0.00 | 83 | 1012.5 |
| 20260506170900 | 15 | 338 | 3.2 | 8.0 | 0.00 | 0.00 | 0.00 | 83 | 1012.7 |
| 20260506170355 | 15 | 227 | 3.2 | 8.0 | 0.00 | 0.00 | 0.00 | 83 | 1012.5 |
| 20260506165849 | 16 | 313 | 4.8 | 8.0 | 0.00 | 0.00 | 0.00 | 82 | 1012.5 |
| 20260506165347 | 16 | 320 | 1.6 | 9.7 | 0.00 | 0.00 | 0.00 | 82 | 1012.6 |
| 20260506164843 | 16 | 302 | 3.2 | 9.7 | 0.00 | 0.00 | 0.00 | 81 | 1012.6 |
| 20260506164339 | 16 | 341 | 4.8 | 9.7 | 0.00 | 0.00 | 0.00 | 81 | 1012.5 |
| 20260506163838 | 16 | 300 | 3.2 | 16.1 | 0.00 | 0.00 | 0.00 | 81 | 1012.7 |
| 20260506163332 | 16 | 185 | 8.0 | 11.3 | 0.00 | 0.00 | 0.00 | 80 | 1012.6 |
| 20260506162827 | 16 | 205 | 1.6 | 9.7 | 0.00 | 0.00 | 0.00 | 79 | 1012.3 |
| 20260506162325 | 16 | 136 | 4.8 | 4.8 | 0.00 | 0.00 | 0.00 | 80 | 1012.5 |
| 20260506161823 | 16 | 230 | 6.4 | 14.5 | 0.00 | 0.00 | 0.00 | 79 | 1012.8 |
| 20260506161319 | 16 | 220 | 4.8 | 11.3 | 0.00 | 0.00 | 0.00 | 79 | 1012.6 |
| 20260506160818 | 17 | 194 | 4.8 | 9.7 | 0.00 | 0.00 | 0.00 | 79 | 1012.8 |
| 20260506160314 | 16 | 214 | 8.0 | 12.9 | 0.00 | 0.00 | 0.00 | 79 | 1013.0 |
| 20260506155813 | 16 | 158 | 4.8 | 12.9 | 0.00 | 0.00 | 0.00 | 80 | 1012.9 |
| 20260506155309 | 16 | 186 | 3.2 | 4.8 | 0.00 | 0.00 | 0.00 | 80 | 1013.1 |
| 20260506153421 | 17 | 345 | 1.6 | 11.3 | 0.00 | 0.00 | 0.00 | 78 | 1013.1 |
| 20260506152918 | 17 | 193 | 6.4 | 22.5 | 0.00 | 0.00 | 0.00 | 77 | 1013.0 |
| 20260506152415 | 17 | 333 | 3.2 | 4.8 | 0.00 | 0.00 | 0.00 | 77 | 1013.0 |
| 20260506151914 | 17 | 239 | 4.8 | 12.9 | 0.00 | 0.00 | 0.00 | 77 | 1012.7 |
| 20260506151410 | 18 | 343 | 4.8 | 9.7 | 0.00 | 0.00 | 0.00 | 76 | 1013.0 |
| 20260506150908 | 18 | 222 | 3.2 | 4.8 | 0.00 | 0.00 | 0.00 | 75 | 1013.0 |
| 20260506150404 | 18 | 314 | 1.6 | 9.7 | 0.00 | 0.00 | 0.00 | 74 | 1013.2 |
| 20260506145901 | 18 | 261 | 4.8 | 8.0 | 0.00 | 0.00 | 0.00 | 74 | 1013.0 |
| 20260506145357 | 18 | 191 | 3.2 | 8.0 | 0.00 | 0.00 | 0.00 | 74 | 1013.1 |
| 20260506144855 | 18 | 247 | 8.0 | 9.7 | 0.00 | 0.00 | 0.00 | 74 | 1013.2 |
| 20260506144351 | 18 | 173 | 4.8 | 12.9 | 0.00 | 0.00 | 0.00 | 76 | 1013.0 |
| 20260506143850 | 18 | 156 | 4.8 | 9.7 | 0.00 | 0.00 | 0.00 | 74 | 1013.2 |
| 20260506143346 | 18 | 215 | 8.0 | 12.9 | 0.00 | 0.00 | 0.00 | 73 | 1013.5 |
| 20260506142845 | 18 | 232 | 4.8 | 9.7 | 0.00 | 0.00 | 0.00 | 76 | 1013.2 |
| 20260506142342 | 17 | 239 | 4.8 | 12.9 | 0.00 | 0.00 | 0.00 | 77 | 1013.3 |
| 20260506141840 | 17 | 193 | 6.4 | 8.0 | 0.00 | 0.00 | 0.00 | 75 | 1013.3 |
| 20260506141338 | 18 | 187 | 1.6 | 12.9 | 0.00 | 0.00 | 0.00 | 76 | 1013.4 |
| 20260506140836 | 17 | 312 | 1.6 | 8.0 | 0.00 | 0.00 | 0.00 | 76 | 1013.2 |
| 20260506140332 | 17 | 1 | 4.8 | 8.0 | 0.00 | 0.00 | 0.00 | 76 | 1013.3 |
| 20260506135829 | 17 | 300 | 8.0 | 9.7 | 0.00 | 0.00 | 0.00 | 77 | 1013.1 |
| 20260506135326 | 17 | 233 | 8.0 | 11.3 | 0.00 | 0.00 | 0.00 | 76 | 1013.3 |
| 20260506134822 | 17 | 276 | 8.0 | 9.7 | 0.00 | 0.00 | 0.00 | 76 | 1013.2 |
| 20260506134319 | 17 | 219 | 3.2 | 8.0 | 0.00 | 0.00 | 0.00 | 78 | 1013.1 |
| 20260506133816 | 16 | 354 | 3.2 | 11.3 | 0.00 | 0.00 | 0.00 | 79 | 1012.9 |
| 20260506133313 | 16 | 249 | 3.2 | 9.7 | 0.00 | 0.00 | 0.00 | 79 | 1013.0 |
| 20260506132809 | 17 | 170 | 4.8 | 9.7 | 0.00 | 0.00 | 0.00 | 78 | 1013.1 |
| 20260506132307 | 17 | 297 | 3.2 | 9.7 | 0.00 | 0.00 | 0.00 | 78 | 1012.9 |
| 20260506131805 | 17 | 214 | 1.6 | 11.3 | 0.00 | 0.00 | 0.00 | 79 | 1013.1 |
| 20260506131300 | 16 | 232 | 3.2 | 9.7 | 0.00 | 0.00 | 0.00 | 79 | 1013.0 |
| 20260506130757 | 16 | 310 | 4.8 | 11.3 | 0.00 | 0.00 | 0.00 | 80 | 1013.2 |
| 20260506130254 | 16 | 317 | 6.4 | 11.3 | 0.00 | 0.00 | 0.00 | 79 | 1013.2 |
| 20260506125752 | 16 | 161 | 1.6 | 9.7 | 0.00 | 0.00 | 0.00 | 79 | 1013.1 |
| 20260506125250 | 16 | 246 | 4.8 | 9.7 | 0.00 | 0.00 | 0.00 | 80 | 1013.3 |
| 20260506124748 | 16 | 256 | 6.4 | 11.3 | 0.00 | 0.00 | 0.00 | 79 | 1013.4 |
| 20260506124245 | 16 | 333 | 3.2 | 11.3 | 0.00 | 0.00 | 0.00 | 80 | 1013.5 |
| 20260506123743 | 16 | 310 | 3.2 | 9.7 | 0.00 | 0.00 | 0.00 | 81 | 1013.6 |
| 20260506123242 | 16 | 317 | 4.8 | 9.7 | 0.00 | 0.00 | 0.00 | 82 | 1013.6 |
| 20260506122738 | 16 | 225 | 4.8 | 11.3 | 0.00 | 0.00 | 0.00 | 82 | 1013.4 |
| 20260506122235 | 15 | 290 | 3.2 | 11.3 | 0.00 | 0.00 | 0.00 | 83 | 1013.5 |
| 20260506121733 | 15 | 256 | 9.7 | 12.9 | 0.00 | 0.00 | 0.00 | 84 | 1013.4 |
| 20260506121229 | 15 | 306 | 8.0 | 9.7 | 0.00 | 0.00 | 0.00 | 85 | 1013.4 |
| 20260506120727 | 15 | 274 | 1.6 | 11.3 | 0.00 | 0.00 | 0.00 | 86 | 1013.5 |
| 20260506120225 | 15 | 297 | 1.6 | 8.0 | 0.00 | 0.00 | 0.00 | 86 | 1013.5 |
| 20260506115722 | 15 | 317 | 3.2 | 8.0 | 0.00 | 0.00 | 0.00 | 86 | 1013.6 |
| 20260506115220 | 15 | 310 | 8.0 | 14.5 | 0.00 | 0.00 | 0.00 | 87 | 1013.3 |
| 20260506114718 | 15 | 179 | 3.2 | 9.7 | 0.00 | 0.00 | 0.00 | 87 | 1013.6 |
| 20260506114215 | 15 | 316 | 4.8 | 4.8 | 0.00 | 0.00 | 0.00 | 87 | 1013.4 |
| 20260506113713 | 15 | 303 | 4.8 | 14.5 | 0.00 | 0.00 | 0.00 | 87 | 1013.5 |
| 20260506113211 | 15 | 309 | 3.2 | 4.8 | 0.00 | 0.00 | 0.00 | 88 | 1013.6 |
| 20260506112707 | 14 | 210 | 8.0 | 9.7 | 0.00 | 0.00 | 0.00 | 89 | 1013.7 |
| 20260506112205 | 13 | 259 | 1.6 | 11.3 | 0.00 | 0.00 | 0.00 | 90 | 1013.6 |
| 20260506111702 | 13 | 236 | 6.4 | 11.3 | 0.00 | 0.00 | 0.00 | 90 | 1013.7 |
| 20260506111159 | 13 | 249 | 3.2 | 8.0 | 0.00 | 0.00 | 0.00 | 91 | 1013.8 |
| 20260506110656 | 13 | 240 | 3.2 | 8.0 | 0.00 | 0.00 | 0.00 | 91 | 1013.7 |
| 20260506110154 | 13 | 311 | 4.8 | 8.0 | 0.00 | 0.00 | 0.00 | 91 | 1013.5 |
| 20260506105650 | 13 | 237 | 1.6 | 8.0 | 0.00 | 0.00 | 0.00 | 92 | 1013.6 |
| 20260506105147 | 13 | 27 | 1.6 | 4.8 | 0.00 | 0.00 | 0.00 | 92 | 1013.7 |
| 20260506104646 | 13 | 215 | 4.8 | 9.7 | 0.00 | 0.00 | 0.00 | 92 | 1013.7 |
| 20260506104143 | 13 | 234 | 3.2 | 4.8 | 0.00 | 0.00 | 0.00 | 93 | 1013.6 |
| 20260506103640 | 13 | 214 | 3.2 | 8.0 | 0.00 | 0.00 | 0.00 | 93 | 1013.7 |
| 20260506103137 | 13 | 234 | 3.2 | 8.0 | 0.00 | 0.00 | 0.00 | 93 | 1013.7 |
| 20260506102635 | 13 | 154 | 3.2 | 11.3 | 0.00 | 0.00 | 0.00 | 93 | 1013.7 |
| 20260506102132 | 12 | 251 | 3.2 | 8.0 | 0.00 | 0.00 | 0.00 | 93 | 1013.5 |
| 20260506101629 | 12 | 272 | 3.2 | 9.7 | 0.00 | 0.00 | 0.00 | 93 | 1013.5 |
| 20260506101125 | 12 | 199 | 3.2 | 4.8 | 0.00 | 0.00 | 0.00 | 93 | 1013.5 |
| 20260506100624 | 12 | 254 | 4.8 | 9.7 | 0.00 | 0.00 | 0.00 | 92 | 1013.6 |
| 20260506100121 | 13 | 252 | 4.8 | 4.8 | 0.00 | 0.00 | 0.00 | 92 | 1013.6 |
| 20260506095620 | 12 | 195 | 3.2 | 8.0 | 0.00 | 0.00 | 0.00 | 92 | 1013.6 |
| 20260506095116 | 13 | 237 | 1.6 | 8.0 | 0.00 | 0.00 | 0.00 | 92 | 1013.6 |
| 20260506094614 | 13 | 282 | 4.8 | 4.8 | 0.00 | 0.00 | 0.00 | 92 | 1013.6 |
| 20260506094111 | 13 | 251 | 1.6 | 8.0 | 0.00 | 0.00 | 0.00 | 92 | 1013.2 |
| 20260506093610 | 13 | 273 | 1.6 | 3.2 | 0.00 | 0.00 | 0.00 | 91 | 1013.4 |
| 20260506093107 | 13 | 339 | 3.2 | 9.7 | 0.00 | 0.00 | 0.00 | 91 | 1013.4 |
| 20260506092605 | 13 | 246 | 3.2 | 4.8 | 0.00 | 0.00 | 0.00 | 91 | 1013.4 |
| 20260506092101 | 13 | 275 | 1.6 | 8.0 | 0.00 | 0.00 | 0.00 | 91 | 1013.3 |
| 20260506091600 | 13 | 248 | 4.8 | 8.0 | 0.00 | 0.00 | 0.00 | 91 | 1013.6 |
| 20260506091057 | 13 | 238 | 1.6 | 8.0 | 0.00 | 0.00 | 0.00 | 91 | 1013.6 |
| 20260506090554 | 13 | 245 | 1.6 | 4.8 | 0.00 | 0.00 | 0.00 | 90 | 1013.5 |
| 20260506090050 | 13 | 228 | 6.4 | 11.3 | 0.00 | 0.00 | 0.00 | 90 | 1013.6 |
| 20260506085547 | 13 | 184 | 3.2 | 4.8 | 0.00 | 0.00 | 0.00 | 90 | 1013.9 |
| 20260506085044 | 13 | 335 | 4.8 | 9.7 | 0.00 | 0.00 | 0.00 | 90 | 1013.7 |
| 20260506084541 | 13 | 234 | 3.2 | 11.3 | 0.00 | 0.00 | 0.00 | 90 | 1013.7 |
| 20260506084037 | 13 | 213 | 4.8 | 8.0 | 0.00 | 0.00 | 0.00 | 90 | 1013.6 |
| 20260506083534 | 13 | 250 | 4.8 | 9.7 | 0.00 | 0.00 | 0.00 | 89 | 1013.7 |
| 20260506083032 | 13 | 179 | 6.4 | 9.7 | 0.00 | 0.00 | 0.00 | 89 | 1013.7 |
| 20260506082528 | 13 | 230 | 3.2 | 8.0 | 0.00 | 0.00 | 0.00 | 89 | 1013.6 |
| 20260506082024 | 13 | 309 | 1.6 | 4.8 | 0.00 | 0.00 | 0.00 | 89 | 1013.8 |
| 20260506081522 | 13 | 224 | 3.2 | 9.7 | 0.00 | 0.00 | 0.00 | 89 | 1013.7 |
| 20260506081020 | 13 | 228 | 1.6 | 9.7 | 0.00 | 0.00 | 0.00 | 89 | 1013.7 |
| 20260506080517 | 13 | 236 | 1.6 | 3.2 | 0.00 | 0.00 | 0.00 | 89 | 1014.0 |
| 20260506073500 | 13 | 70 | 1.6 | 4.8 | 0.00 | 0.00 | 0.00 | 88 | 1013.9 |
| 20260506072957 | 13 | 247 | 3.2 | 8.0 | 0.00 | 0.00 | 0.00 | 87 | 1013.9 |
| 20260506072454 | 13 | 232 | 4.8 | 8.0 | 0.00 | 0.00 | 0.00 | 87 | 1013.8 |
| 20260506071952 | 13 | 185 | 3.2 | 4.8 | 0.00 | 0.00 | 0.00 | 87 | 1013.9 |
| 20260506071450 | 13 | 231 | 6.4 | 12.9 | 0.00 | 0.00 | 0.00 | 87 | 1014.0 |
| 20260506070947 | 13 | 251 | 3.2 | 4.8 | 0.00 | 0.00 | 0.00 | 87 | 1013.9 |
| 20260506070444 | 13 | 201 | 4.8 | 4.8 | 0.00 | 0.00 | 0.00 | 86 | 1013.7 |
| 20260506062422 | 13 | 282 | 1.6 | 8.0 | 0.00 | 0.00 | 0.00 | 85 | 1013.6 |
| 20260506061917 | 14 | 177 | 4.8 | 8.0 | 0.00 | 0.00 | 0.00 | 85 | 1014.0 |
| 20260506061414 | 14 | 194 | 4.8 | 9.7 | 0.00 | 0.00 | 0.00 | 84 | 1013.9 |
| 20260506060912 | 14 | 324 | 3.2 | 11.3 | 0.00 | 0.00 | 0.00 | 84 | 1013.9 |
| 20260506060410 | 14 | 274 | 0.0 | 8.0 | 0.00 | 0.00 | 0.00 | 84 | 1014.2 |
| 20260506051342 | 14 | 240 | 4.8 | 8.0 | 0.00 | 0.00 | 0.00 | 83 | 1014.2 |
| 20260506050839 | 15 | 3 | 6.4 | 11.3 | 0.00 | 0.00 | 0.00 | 82 | 1014.4 |
| 20260506050336 | 15 | 280 | 3.2 | 4.8 | 0.00 | 0.00 | 0.00 | 83 | 1014.5 |
| 20260506044827 | 15 | 269 | 3.2 | 11.3 | 0.00 | 0.00 | 0.00 | 82 | 1014.4 |
| 20260506044325 | 15 | 233 | 9.7 | 14.5 | 0.00 | 0.00 | 0.00 | 82 | 1014.5 |
| 20260506043821 | 15 | 255 | 1.6 | 4.8 | 0.00 | 0.00 | 0.00 | 82 | 1014.4 |
| 20260506043319 | 15 | 192 | 4.8 | 12.9 | 0.00 | 0.00 | 0.00 | 81 | 1014.4 |
| 20260506042817 | 15 | 297 | 8.0 | 11.3 | 0.00 | 0.00 | 0.00 | 82 | 1014.3 |
| 20260506042316 | 15 | 305 | 9.7 | 16.1 | 0.00 | 0.00 | 0.00 | 81 | 1014.4 |
| 20260506041814 | 15 | 131 | 9.7 | 11.3 | 0.00 | 0.00 | 0.00 | 81 | 1014.6 |
| 20260506041311 | 15 | 259 | 8.0 | 9.7 | 0.00 | 0.00 | 0.00 | 81 | 1014.5 |
| 20260506040808 | 15 | 219 | 6.4 | 9.7 | 0.00 | 0.00 | 0.00 | 81 | 1014.5 |
| 20260506040305 | 15 | 190 | 4.8 | 8.0 | 0.00 | 0.00 | 0.00 | 81 | 1014.7 |
| 20260506035801 | 15 | 260 | 4.8 | 9.7 | 0.00 | 0.00 | 0.00 | 80 | 1014.5 |
| 20260506035259 | 15 | 305 | 9.7 | 17.7 | 0.00 | 0.00 | 0.00 | 80 | 1014.6 |
| 20260506034756 | 15 | 193 | 4.8 | 4.8 | 0.00 | 0.00 | 0.00 | 80 | 1014.6 |
| 20260506034253 | 15 | 224 | 3.2 | 9.7 | 0.00 | 0.00 | 0.00 | 79 | 1014.5 |
| 20260506033749 | 15 | 235 | 4.8 | 16.1 | 0.00 | 0.00 | 0.00 | 78 | 1014.4 |
| 20260506033247 | 15 | 259 | 1.6 | 9.7 | 0.00 | 0.00 | 0.00 | 78 | 1014.8 |
| 20260506032744 | 15 | 265 | 4.8 | 9.7 | 0.00 | 0.00 | 0.00 | 78 | 1014.6 |
| 20260506032241 | 15 | 241 | 4.8 | 9.7 | 0.00 | 0.00 | 0.00 | 77 | 1014.6 |
| 20260506031737 | 15 | 267 | 3.2 | 8.0 | 0.00 | 0.00 | 0.00 | 76 | 1014.8 |
| 20260506031235 | 15 | 156 | 1.6 | 11.3 | 0.00 | 0.00 | 0.00 | 76 | 1014.5 |
| 20260506030733 | 15 | 183 | 6.4 | 8.0 | 0.00 | 0.00 | 0.00 | 75 | 1014.4 |
| 20260506030230 | 16 | 329 | 3.2 | 4.8 | 0.00 | 0.00 | 0.00 | 74 | 1014.6 |
| 20260506025721 | 16 | 309 | 4.8 | 11.3 | 0.00 | 0.00 | 0.00 | 74 | 1014.4 |
| 20260506025218 | 16 | 228 | 4.8 | 8.0 | 0.00 | 0.00 | 0.00 | 73 | 1014.7 |
| 20260506024715 | 16 | 249 | 6.4 | 9.7 | 0.00 | 0.00 | 0.00 | 73 | 1014.5 |